Lincoln, Virginia
Current Conditions -  °F | °C
As of 2:15 PM on Friday 21 Nov 2014 (Local Time) from KJYO Reporting Station
Clear Clear  
Wind Chill: 28°   Ceiling: Unl
Heat Index: 36°   Visibility: 10mi
Dew Point: 12°   Wind: 12mph
Humidity: 38%   Direction: 300°WNW
Pressure: 30.46"   Gusts: 16mph
Location:  39.12°N, 77.7°W
Report Text: KJYO 211915Z AUTO 30010G14KT 270V340 10SM CLR 02/M11 A3046 RMK AO2
Loading
Personal Weather Stations






























Interactive Weather Map New forecast layout! Learn more

10-Day Weather Forecast

Advertisements
Track Severe Weather on mobile